Time;durP1;ratioP1;P1;durP2;ratioP2;P2;SDS_P1;SDS_P2;PMS_P1;PMS_P2;Temp;Humidity;BMP_temperature;BMP_pressure;BME280_temperature;BME280_humidity;BME280_pressure;Samples;Min_cycle;Max_cycle;Signal;HPM_P1;HPM_P2
2022/04/07 00:01:49;;;;;;;3.15;1.27;;;;;;;10.95;66.50;99232.13;5123950;28;20047;-59
2022/04/07 00:04:18;;;;;;;2.55;1.10;;;;;;;10.93;66.60;99226.19;5115458;28;20067;-59
2022/04/07 00:06:47;;;;;;;3.40;1.35;;;;;;;10.91;66.83;99226.47;5117498;28;20051;-59
2022/04/07 00:09:15;;;;;;;3.30;1.73;;;;;;;10.90;66.41;99213.28;5107562;28;20052;-59
2022/04/07 00:11:43;;;;;;;1.58;1.00;;;;;;;10.89;66.83;99215.16;5117724;28;20070;-58
2022/04/07 00:14:11;;;;;;;3.58;1.40;;;;;;;10.90;66.32;99210.59;5112942;27;20127;-59
2022/04/07 00:16:39;;;;;;;6.28;2.35;;;;;;;10.86;66.68;99207.63;5111389;28;20048;-58
2022/04/07 00:19:07;;;;;;;5.13;1.25;;;;;;;10.86;66.33;99199.56;5103680;28;20056;-59
2022/04/07 00:21:38;;;;;;;2.50;1.48;;;;;;;10.89;66.35;99195.53;5114571;28;20086;-59
2022/04/07 00:24:08;;;;;;;4.32;1.05;;;;;;;10.87;66.54;99193.13;5107870;28;20073;-59
2022/04/07 00:26:36;;;;;;;3.53;1.00;;;;;;;10.87;66.31;99195.00;5116698;27;20075;-59
2022/04/07 00:29:04;;;;;;;3.28;1.17;;;;;;;10.86;66.06;99180.75;5118409;28;20043;-59
2022/04/07 00:31:39;;;;;;;4.50;1.40;;;;;;;10.84;66.00;99174.84;5112629;28;20044;-59
2022/04/07 00:34:09;;;;;;;3.95;1.52;;;;;;;10.84;66.16;99174.03;5112388;28;20044;-59
2022/04/07 00:36:37;;;;;;;5.13;1.20;;;;;;;10.85;66.18;99170.28;5120796;28;20082;-59
2022/04/07 00:39:04;;;;;;;8.73;1.52;;;;;;;10.83;65.90;99157.09;5105451;28;20060;-59
2022/04/07 00:41:37;;;;;;;3.28;1.10;;;;;;;10.82;66.43;99160.84;5106328;28;20149;-59
2022/04/07 00:44:08;;;;;;;6.53;1.90;;;;;;;10.83;66.27;99156.28;5112917;28;20054;-60
2022/04/07 00:46:36;;;;;;;3.60;1.10;;;;;;;10.83;66.39;99158.97;5116664;28;20055;-58
2022/04/07 00:49:04;;;;;;;2.70;0.82;;;;;;;10.82;66.08;99141.25;5122849;28;20067;-59
2022/04/07 00:51:33;;;;;;;3.85;1.45;;;;;;;10.82;66.16;99135.88;5112329;27;20063;-59
2022/04/07 00:54:01;;;;;;;3.72;1.33;;;;;;;10.81;65.83;99137.75;5113369;28;20093;-59
2022/04/07 00:56:29;;;;;;;3.03;1.05;;;;;;;10.81;66.15;99140.44;5116289;28;20360;-58
2022/04/07 00:58:58;;;;;;;4.32;1.10;;;;;;;10.81;66.53;99126.19;5110394;28;20106;-59
2022/04/07 01:01:28;;;;;;;3.92;1.75;;;;;;;10.80;66.06;99135.31;5121315;28;20058;-59
2022/04/07 01:03:56;;;;;;;4.20;1.15;;;;;;;10.79;66.40;99126.44;5103059;28;20074;-59
2022/04/07 01:06:24;;;;;;;3.83;1.33;;;;;;;10.80;66.17;99116.50;5117422;28;20079;-59
2022/04/07 01:08:53;;;;;;;8.85;1.52;;;;;;;10.81;66.49;99108.19;5113080;28;20048;-59
2022/04/07 01:11:20;;;;;;;5.60;1.38;;;;;;;10.81;66.52;99112.75;5117072;28;20056;-59
2022/04/07 01:13:50;;;;;;;2.30;1.10;;;;;;;10.81;66.29;99099.31;5107819;28;20055;-59
2022/04/07 01:16:21;;;;;;;6.60;1.73;;;;;;;10.81;66.68;99102.00;5123028;28;20075;-59
2022/04/07 01:18:49;;;;;;;7.57;2.53;;;;;;;10.82;66.22;99104.41;5120545;28;22025;-59
2022/04/07 01:21:17;;;;;;;6.97;1.13;;;;;;;10.83;66.36;99091.78;5105492;28;20079;-58
2022/04/07 01:23:55;;;;;;;6.35;1.30;;;;;;;10.85;65.99;99089.66;5105811;28;20040;-59
2022/04/07 01:26:26;;;;;;;8.65;1.40;;;;;;;10.83;66.11;99079.16;5105567;28;20052;-59
2022/04/07 01:28:53;;;;;;;2.45;1.40;;;;;;;10.82;66.08;99082.94;5106782;28;20116;-57
2022/04/07 01:31:21;;;;;;;3.60;1.60;;;;;;;10.81;66.31;99078.63;5113718;28;20071;-57
2022/04/07 01:33:49;;;;;;;5.03;1.13;;;;;;;10.81;66.22;99069.75;5109517;28;20071;-58
2022/04/07 01:36:18;;;;;;;5.45;1.70;;;;;;;10.82;65.94;99066.00;5107523;28;20096;-58
2022/04/07 01:38:46;;;;;;;4.43;1.50;;;;;;;10.80;66.13;99060.88;5113303;28;20123;-58
2022/04/07 01:41:14;;;;;;;4.93;1.77;;;;;;;10.79;66.35;99059.28;5107504;28;20072;-58
2022/04/07 01:43:43;;;;;;;5.72;1.95;;;;;;;10.78;66.24;99049.59;5119063;28;20075;-59
2022/04/07 01:46:13;;;;;;;8.10;1.60;;;;;;;10.78;66.23;99038.84;5114865;28;20067;-59
2022/04/07 01:48:42;;;;;;;7.22;1.45;;;;;;;10.78;66.32;99038.84;5121484;28;20524;-58
2022/04/07 01:51:12;;;;;;;5.68;1.50;;;;;;;10.79;66.07;99031.59;5118577;28;20040;-58
2022/04/07 01:53:40;;;;;;;3.45;1.15;;;;;;;10.79;66.03;99034.28;5108649;28;20044;-59
2022/04/07 01:56:09;;;;;;;4.68;1.52;;;;;;;10.77;66.32;99018.44;5111036;28;20067;-59
2022/04/07 01:58:37;;;;;;;4.88;1.33;;;;;;;10.74;66.14;99019.78;5121966;28;20051;-58
2022/04/07 02:01:06;;;;;;;5.10;1.65;;;;;;;10.74;66.21;99019.78;5111511;28;20075;-59
2022/04/07 02:03:34;;;;;;;3.80;1.50;;;;;;;10.70;66.61;99009.81;5107053;28;20071;-59
2022/04/07 02:06:17;;;;;;;4.43;1.40;;;;;;;10.76;66.32;99011.44;5113079;28;20051;-59
2022/04/07 02:08:45;;;;;;;7.57;1.70;;;;;;;10.62;66.70;98980.81;5119513;28;20067;-58
2022/04/07 02:11:13;;;;;;;6.32;2.22;;;;;;;10.74;66.38;99000.16;5110576;28;20047;-59
2022/04/07 02:13:42;;;;;;;6.20;1.67;;;;;;;10.73;66.47;98995.84;5119202;27;20052;-59
2022/04/07 02:16:12;;;;;;;3.00;1.25;;;;;;;10.73;66.29;99001.22;5122663;28;20043;-59
2022/04/07 02:18:40;;;;;;;4.38;1.33;;;;;;;10.71;66.32;99004.19;5113595;28;20054;-60
2022/04/07 02:21:08;;;;;;;5.80;1.48;;;;;;;10.73;66.13;99001.22;5123541;28;20082;-58
2022/04/07 02:23:42;;;;;;;5.88;1.40;;;;;;;10.72;66.33;98989.69;5125125;28;20106;-58
2022/04/07 02:26:11;;;;;;;7.22;1.50;;;;;;;10.70;66.38;98983.75;5121434;28;20044;-59
2022/04/07 02:28:39;;;;;;;6.40;1.60;;;;;;;10.70;66.46;98981.06;5110769;28;20054;-58
2022/04/07 02:31:07;;;;;;;5.38;1.92;;;;;;;10.68;66.50;98975.16;5119110;28;20139;-59
2022/04/07 02:33:36;;;;;;;6.88;2.22;;;;;;;10.70;66.34;98973.03;5114935;28;20075;-59
2022/04/07 02:36:05;;;;;;;4.47;1.50;;;;;;;10.71;66.41;98973.81;5119475;28;20047;-59
2022/04/07 02:38:34;;;;;;;7.75;2.08;;;;;;;10.70;66.14;98978.38;5119823;28;20082;-58
2022/04/07 02:41:01;;;;;;;6.40;1.85;;;;;;;10.70;66.40;98940.78;5109340;28;20116;-59
2022/04/07 02:43:29;;;;;;;5.30;1.50;;;;;;;10.71;66.44;98955.00;5119937;28;20119;-59
2022/04/07 02:45:57;;;;;;;10.45;2.17;;;;;;;10.71;66.33;98941.59;5120778;27;20074;-58
2022/04/07 02:48:25;;;;;;;6.95;1.88;;;;;;;10.70;66.18;98945.34;5113839;28;20112;-59
2022/04/07 02:50:54;;;;;;;6.57;1.77;;;;;;;10.69;66.29;98933.00;5120430;28;20055;-59
2022/04/07 02:53:21;;;;;;;6.28;1.65;;;;;;;10.71;66.32;98937.00;5122325;28;20096;-59
2022/04/07 02:55:49;;;;;;;6.30;1.92;;;;;;;10.71;66.06;98920.09;5108506;28;20075;-58
2022/04/07 02:58:17;;;;;;;5.38;2.00;;;;;;;10.72;66.14;98927.06;5122887;28;20075;-57
2022/04/07 03:00:45;;;;;;;5.40;1.85;;;;;;;10.71;65.99;98922.78;5109451;28;20076;-58
2022/04/07 03:03:12;;;;;;;5.50;1.75;;;;;;;10.70;66.31;98905.84;5115925;28;20052;-58
2022/04/07 03:05:40;;;;;;;4.38;1.67;;;;;;;10.69;65.83;98915.00;5113035;28;20446;-58
2022/04/07 03:08:09;;;;;;;9.73;2.00;;;;;;;10.71;65.75;98903.97;5122279;28;20079;-58
2022/04/07 03:10:37;;;;;;;5.82;1.77;;;;;;;10.72;65.97;98902.91;5111656;28;21202;-59
2022/04/07 03:13:05;;;;;;;5.80;2.15;;;;;;;10.72;65.77;98884.91;5119802;28;20117;-59
2022/04/07 03:15:33;;;;;;;12.13;2.03;;;;;;;10.76;65.52;98893.22;5116324;28;20039;-58
2022/04/07 03:18:00;;;;;;;9.57;2.17;;;;;;;10.76;65.69;98874.41;5113574;28;20058;-58
2022/04/07 03:20:28;;;;;;;4.60;2.00;;;;;;;10.73;65.56;98880.31;5116000;28;20048;-58
2022/04/07 03:22:56;;;;;;;6.25;1.90;;;;;;;10.72;65.64;98884.09;5118721;28;20082;-57
2022/04/07 03:25:25;;;;;;;6.82;1.73;;;;;;;10.70;65.49;98864.75;5121004;28;20100;-59
2022/04/07 03:27:52;;;;;;;9.57;2.35;;;;;;;10.69;65.78;98863.94;5121791;28;20106;-59
2022/04/07 03:30:20;;;;;;;4.72;2.13;;;;;;;10.71;65.65;98860.97;5107346;28;20048;-60
2022/04/07 03:32:48;;;;;;;7.97;2.05;;;;;;;10.68;65.37;98843.53;5120052;28;20433;-59
2022/04/07 03:35:16;;;;;;;6.80;1.65;;;;;;;10.66;65.39;98848.38;5122906;28;20098;-58
2022/04/07 03:37:43;;;;;;;7.20;2.08;;;;;;;10.67;65.44;98830.38;5121366;28;20450;-60
2022/04/07 03:40:12;;;;;;;5.88;2.00;;;;;;;10.66;65.63;98845.69;5122187;28;20047;-60
2022/04/07 03:42:45;;;;;;;9.43;2.00;;;;;;;10.55;65.45;98819.91;5104760;28;20090;-57
2022/04/07 03:45:12;;;;;;;6.25;1.73;;;;;;;10.66;65.67;98831.44;5119446;28;20107;-59
2022/04/07 03:47:40;;;;;;;11.18;1.73;;;;;;;10.57;65.61;98808.91;5116775;28;20047;-59
2022/04/07 03:50:08;;;;;;;7.25;2.15;;;;;;;10.67;65.21;98830.38;5117118;28;20086;-59
2022/04/07 03:52:36;;;;;;;6.43;1.92;;;;;;;10.66;65.43;98829.56;5114975;28;20060;-59
2022/04/07 03:55:05;;;;;;;8.50;2.13;;;;;;;10.66;65.50;98816.13;5117249;28;20112;-59
2022/04/07 03:57:33;;;;;;;7.60;2.13;;;;;;;10.65;65.51;98821.78;5119170;28;20047;-58
2022/04/07 04:00:04;;;;;;;9.30;1.63;;;;;;;10.67;65.35;98808.88;5113037;28;20044;-58
2022/04/07 04:02:31;;;;;;;8.82;2.22;;;;;;;10.67;65.35;98790.88;5119240;28;20069;-58
2022/04/07 04:04:59;;;;;;;9.40;1.80;;;;;;;10.66;65.38;98759.72;5111432;28;20063;-59
2022/04/07 04:07:28;;;;;;;7.05;1.80;;;;;;;10.74;65.09;98745.72;5112038;28;20075;-58
2022/04/07 04:09:55;;;;;;;8.15;2.40;;;;;;;10.69;65.25;98779.84;5113919;28;20052;-58
2022/04/07 04:12:23;;;;;;;3.17;1.52;;;;;;;10.67;65.39;98771.25;5121925;28;20449;-59
2022/04/07 04:14:51;;;;;;;7.32;2.45;;;;;;;10.67;65.18;98764.00;5113370;28;20050;-58
2022/04/07 04:17:20;;;;;;;6.60;1.50;;;;;;;10.64;65.57;98759.19;5116277;28;20154;-59
2022/04/07 04:19:48;;;;;;;7.30;1.45;;;;;;;10.63;65.50;98740.66;5112248;28;20777;-59
2022/04/07 04:22:15;;;;;;;6.05;1.73;;;;;;;10.64;65.44;98720.78;5119657;28;20062;-58
2022/04/07 04:24:43;;;;;;;5.22;1.63;;;;;;;10.64;65.20;98712.72;5123351;28;20078;-58
2022/04/07 04:27:10;;;;;;;5.05;2.10;;;;;;;10.64;65.47;98700.09;5119348;28;20071;-59
2022/04/07 04:29:40;;;;;;;6.78;1.20;;;;;;;10.65;65.40;98711.63;5118817;28;20424;-59
2022/04/07 04:32:09;;;;;;;3.95;1.33;;;;;;;10.65;65.40;98690.16;5115149;28;20071;-59
2022/04/07 04:34:38;;;;;;;2.65;1.10;;;;;;;10.66;65.30;98678.31;5122168;28;20108;-59
2022/04/07 04:37:05;;;;;;;4.13;1.60;;;;;;;10.65;65.50;98682.88;5109455;27;20127;-59
2022/04/07 04:39:37;;;;;;;5.22;1.70;;;;;;;10.64;65.59;98670.53;5106276;28;20051;-59
2022/04/07 04:42:05;;;;;;;5.40;2.13;;;;;;;10.67;65.53;98672.69;5114890;28;20075;-59
2022/04/07 04:44:33;;;;;;;2.72;1.10;;;;;;;10.68;64.98;98678.84;5114617;28;20090;-58
2022/04/07 04:47:00;;;;;;;5.00;1.10;;;;;;;10.72;65.34;98669.16;5115138;28;20052;-58
2022/04/07 04:49:28;;;;;;;3.63;1.40;;;;;;;10.73;65.67;98673.44;5116540;28;20095;-59
2022/04/07 04:51:57;;;;;;;2.30;0.98;;;;;;;10.74;65.92;98675.06;5121909;28;20098;-58
2022/04/07 04:54:25;;;;;;;4.18;1.52;;;;;;;10.82;65.25;98681.75;5120231;28;20698;-60
2022/04/07 04:56:53;;;;;;;4.57;1.30;;;;;;;10.77;65.85;98651.13;5113868;27;20098;-59
2022/04/07 04:59:20;;;;;;;4.43;1.55;;;;;;;10.79;65.44;98647.38;5113715;28;20853;-59
2022/04/07 05:01:50;;;;;;;3.47;1.30;;;;;;;10.79;65.80;98642.78;5118990;28;20126;-59
2022/04/07 05:04:18;;;;;;;2.33;1.42;;;;;;;10.77;65.87;98653.03;5120283;28;20051;-58
2022/04/07 05:06:46;;;;;;;4.40;1.30;;;;;;;10.83;66.02;98626.94;5111217;28;20043;-58
2022/04/07 05:09:16;;;;;;;3.03;1.42;;;;;;;10.75;66.04;98625.63;5117580;28;20120;-57
2022/04/07 05:11:43;;;;;;;2.53;1.02;;;;;;;10.71;66.03;98603.06;5111288;28;20114;-58
2022/04/07 05:14:12;;;;;;;3.97;1.10;;;;;;;10.74;66.45;98603.31;5112624;28;20188;-59
2022/04/07 05:16:39;;;;;;;2.33;1.25;;;;;;;10.71;66.52;98601.19;5121977;28;20168;-57
2022/04/07 05:19:07;;;;;;;2.60;1.27;;;;;;;10.70;66.55;98599.59;5121722;28;20039;-58
2022/04/07 05:21:35;;;;;;;2.78;1.17;;;;;;;10.73;66.24;98587.47;5116436;28;20051;-58
2022/04/07 05:24:03;;;;;;;3.78;1.15;;;;;;;10.73;66.74;98571.38;5118455;28;20405;-59
2022/04/07 05:26:32;;;;;;;3.75;1.20;;;;;;;10.72;66.38;98570.56;5110263;28;20425;-60
2022/04/07 05:28:59;;;;;;;1.88;0.93;;;;;;;10.69;66.67;98578.38;5119163;28;20052;-59
2022/04/07 05:31:28;;;;;;;2.20;1.33;;;;;;;10.66;66.87;98560.13;5124242;28;20047;-59
2022/04/07 05:33:56;;;;;;;2.40;1.17;;;;;;;10.64;66.55;98549.66;5120143;27;20052;-58
2022/04/07 05:36:23;;;;;;;2.70;1.17;;;;;;;10.60;66.69;98537.06;5116670;28;20050;-58
2022/04/07 05:38:51;;;;;;;2.25;1.10;;;;;;;10.62;67.09;98534.91;5125600;28;20044;-59
2022/04/07 05:41:19;;;;;;;1.67;1.05;;;;;;;10.71;66.95;98523.28;5118423;28;20043;-61
2022/04/07 05:43:48;;;;;;;3.15;1.40;;;;;;;10.68;66.62;98521.16;5122896;28;20096;-60
2022/04/07 05:46:16;;;;;;;5.75;1.92;;;;;;;10.65;66.80;98507.47;4748549;28;10000101;-59
2022/04/07 05:48:44;;;;;;;5.28;1.40;;;;;;;10.75;67.52;98504.72;5109206;28;20100;-59
2022/04/07 05:51:13;;;;;;;2.35;1.20;;;;;;;10.66;66.80;98503.72;5123094;28;20115;-59
2022/04/07 05:53:41;;;;;;;2.53;0.90;;;;;;;10.64;66.76;98500.50;5120126;28;20485;-60
2022/04/07 05:56:09;;;;;;;4.50;1.50;;;;;;;10.59;66.80;98489.81;5117458;28;20150;-59
2022/04/07 05:58:37;;;;;;;4.05;1.60;;;;;;;10.65;66.88;98488.69;5111102;28;20059;-59
2022/04/07 06:01:06;;;;;;;4.55;1.48;;;;;;;10.60;67.12;98483.34;5118550;28;20078;-59
2022/04/07 06:03:34;;;;;;;5.22;1.33;;;;;;;10.61;67.22;98458.09;5112608;28;20066;-58
2022/04/07 06:06:02;;;;;;;4.90;1.25;;;;;;;10.60;67.18;98448.44;5111370;27;20069;-59
2022/04/07 06:08:34;;;;;;;10.70;1.55;;;;;;;10.59;67.37;98449.50;5112437;28;20059;-59
2022/04/07 06:11:02;;;;;;;6.40;1.35;;;;;;;10.57;67.46;98452.47;5124931;28;20507;-59
2022/04/07 06:13:29;;;;;;;4.75;1.60;;;;;;;10.58;67.54;98437.16;5125950;28;20149;-61
2022/04/07 06:15:57;;;;;;;4.65;1.30;;;;;;;10.56;68.03;98434.75;5113955;27;20071;-60
2022/04/07 06:18:27;;;;;;;5.13;2.08;;;;;;;10.60;67.59;98425.06;5131810;27;20053;-59
2022/04/07 06:20:55;;;;;;;6.60;1.52;;;;;;;10.57;67.75;98428.31;5126589;28;20048;-59
2022/04/07 06:23:24;;;;;;;8.55;2.35;;;;;;;10.57;67.62;98416.75;5125104;28;20082;-59
2022/04/07 06:25:52;;;;;;;5.05;1.08;;;;;;;10.62;67.49;98408.66;5112259;28;20182;-59
2022/04/07 06:28:22;;;;;;;4.43;2.25;;;;;;;10.68;67.81;98397.59;5112359;27;20048;-60
2022/04/07 06:30:51;;;;;;;3.42;1.25;;;;;;;10.67;67.40;98393.31;5106383;28;20094;-58
2022/04/07 06:33:19;;;;;;;4.47;1.20;;;;;;;10.61;67.64;98391.75;5120319;28;20054;-59
2022/04/07 06:35:48;;;;;;;6.43;2.47;;;;;;;10.59;67.75;98395.78;5114365;28;20373;-59
2022/04/07 06:38:16;;;;;;;4.30;1.20;;;;;;;10.56;67.77;98380.25;5125783;28;20078;-59
2022/04/07 06:40:44;;;;;;;6.57;1.83;;;;;;;10.68;68.61;98378.00;5115024;28;20043;-59
2022/04/07 06:43:12;;;;;;;3.80;1.30;;;;;;;10.61;67.63;98374.81;5125954;28;20050;-59
2022/04/07 06:45:40;;;;;;;5.18;1.25;;;;;;;10.57;67.62;98374.59;5121424;28;20078;-59
2022/04/07 06:48:08;;;;;;;4.82;1.40;;;;;;;10.56;67.97;98348.81;5118710;28;20051;-60
2022/04/07 06:50:36;;;;;;;7.18;1.80;;;;;;;10.56;68.06;98340.75;5113116;28;20082;-60
2022/04/07 06:53:05;;;;;;;4.30;1.50;;;;;;;10.55;67.73;98333.00;5125137;27;20067;-59
2022/04/07 06:55:33;;;;;;;4.13;1.27;;;;;;;10.55;68.15;98316.88;5113240;28;20083;-59
2022/04/07 06:58:06;;;;;;;5.55;1.25;;;;;;;10.54;68.14;98304.53;5125639;28;20082;-59
2022/04/07 07:00:36;;;;;;;7.35;2.08;;;;;;;10.53;67.67;98300.25;5125398;28;20055;-58
2022/04/07 07:03:04;;;;;;;5.05;1.55;;;;;;;10.50;68.09;98282.81;5119938;27;20051;-59
2022/04/07 07:05:35;;;;;;;3.20;1.13;;;;;;;10.51;67.94;98278.25;5124816;28;20116;-59
2022/04/07 07:08:15;;;;;;;2.88;0.90;;;;;;;10.53;67.81;98268.81;5114741;28;20142;-58
2022/04/07 07:10:45;;;;;;;5.95;1.38;;;;;;;10.51;68.46;98264.81;5108418;28;20047;-59
2022/04/07 07:13:14;;;;;;;3.70;1.00;;;;;;;10.52;68.13;98255.69;5115817;28;20055;-59
2022/04/07 07:15:42;;;;;;;3.33;1.17;;;;;;;10.52;68.51;98244.94;5125068;27;20055;-59
2022/04/07 07:18:09;;;;;;;3.78;1.23;;;;;;;10.52;68.35;98244.94;5105643;28;20051;-59
2022/04/07 07:20:37;;;;;;;4.45;1.10;;;;;;;10.52;68.55;98226.13;5105221;28;20048;-58
2022/04/07 07:23:06;;;;;;;3.60;1.20;;;;;;;10.53;68.71;98223.16;5122135;28;20055;-59
2022/04/07 07:25:35;;;;;;;3.63;0.98;;;;;;;10.52;68.45;98193.91;5132999;27;20092;-59
2022/04/07 07:28:05;;;;;;;4.85;1.27;;;;;;;10.53;68.33;98190.13;5104440;28;20442;-57
2022/04/07 07:30:33;;;;;;;2.47;1.15;;;;;;;10.52;68.68;98177.81;5125635;28;20184;-58
2022/04/07 07:33:02;;;;;;;2.65;1.35;;;;;;;10.53;68.63;98169.47;5125694;28;20052;-59
2022/04/07 07:35:29;;;;;;;3.25;0.80;;;;;;;10.54;68.43;98168.38;5122120;28;20058;-58
2022/04/07 07:37:59;;;;;;;4.00;1.23;;;;;;;10.55;68.38;98161.13;5115074;28;20086;-58
2022/04/07 07:40:29;;;;;;;2.80;0.85;;;;;;;10.56;69.07;98173.47;5106935;28;20051;-59
2022/04/07 07:43:00;;;;;;;3.13;1.40;;;;;;;10.55;68.90;98159.22;5116277;28;20077;-59
2022/04/07 07:45:29;;;;;;;1.58;0.70;;;;;;;10.56;69.45;98160.03;5123330;28;20614;-58
2022/04/07 07:48:18;;;;;;;2.47;1.27;;;;;;;10.54;69.15;98151.47;5125338;28;20044;-60
2022/04/07 07:50:46;;;;;;;2.20;1.05;;;;;;;10.56;69.13;98138.53;5125221;28;20069;-59
2022/04/07 07:53:17;;;;;;;4.50;1.38;;;;;;;10.56;69.37;98136.66;5120892;28;20109;-59
2022/04/07 07:55:45;;;;;;;4.90;1.30;;;;;;;10.57;69.90;98250.25;5114585;28;20044;-58
2022/04/07 07:58:14;;;;;;;5.85;1.58;;;;;;;10.53;71.94;98340.53;5108524;27;20048;-59
2022/04/07 08:00:42;;;;;;;4.25;1.27;;;;;;;10.49;71.15;98348.34;5106600;27;20059;-59
2022/04/07 08:03:10;;;;;;;2.22;1.33;;;;;;;10.37;70.92;98329.16;5114096;27;20048;-58
2022/04/07 08:05:38;;;;;;;3.17;1.45;;;;;;;10.37;70.46;98326.47;5124646;28;20047;-59
2022/04/07 08:08:06;;;;;;;3.95;0.80;;;;;;;10.34;70.31;98330.53;5111821;28;20069;-59
2022/04/07 08:10:34;;;;;;;1.55;1.00;;;;;;;10.33;70.36;98320.06;5104131;28;20051;-60
2022/04/07 08:13:02;;;;;;;2.58;0.80;;;;;;;10.31;69.80;98306.91;5121107;28;20052;-59
2022/04/07 08:15:31;;;;;;;2.90;0.75;;;;;;;10.29;70.05;98300.22;5118643;28;20581;-60
2022/04/07 08:17:59;;;;;;;1.17;0.63;;;;;;;10.28;69.75;98293.25;5124034;28;20100;-60
2022/04/07 08:20:27;;;;;;;2.10;0.98;;;;;;;10.27;69.68;98313.94;5124333;28;20497;-60
2022/04/07 08:22:54;;;;;;;2.75;1.02;;;;;;;10.27;69.84;98319.31;5123697;28;20075;-60
2022/04/07 08:25:22;;;;;;;1.42;0.68;;;;;;;10.25;69.79;98305.34;5119573;28;20047;-59
2022/04/07 08:27:50;;;;;;;2.58;0.70;;;;;;;10.27;70.02;98315.81;5123877;28;20513;-59
2022/04/07 08:30:18;;;;;;;2.38;0.80;;;;;;;10.25;69.96;98324.16;5124667;28;20048;-59
2022/04/07 08:32:47;;;;;;;2.13;1.00;;;;;;;10.24;69.61;98311.81;5123305;28;20075;-60
2022/04/07 08:35:15;;;;;;;1.63;0.75;;;;;;;10.23;70.24;98322.81;5121080;27;20159;-59
2022/04/07 08:37:43;;;;;;;3.10;1.02;;;;;;;10.22;70.02;98300.56;5112567;28;20055;-59
2022/04/07 08:40:11;;;;;;;3.70;1.05;;;;;;;10.23;70.02;98306.72;5120738;28;20047;-59
2022/04/07 08:42:39;;;;;;;0.90;0.60;;;;;;;10.22;70.00;98313.19;5122616;28;20117;-59
2022/04/07 08:45:08;;;;;;;3.10;0.70;;;;;;;10.24;69.59;98302.97;5112544;27;20052;-59
2022/04/07 08:47:35;;;;;;;2.70;0.73;;;;;;;10.25;69.81;98297.31;5109485;28;20043;-58
2022/04/07 08:50:05;;;;;;;2.85;0.80;;;;;;;10.24;70.06;98303.75;5120275;28;20186;-59
2022/04/07 08:52:35;;;;;;;2.47;0.80;;;;;;;10.24;70.11;98298.38;5121841;28;20059;-58
2022/04/07 08:55:03;;;;;;;3.00;0.90;;;;;;;10.24;70.37;98294.91;5122677;28;20104;-58
2022/04/07 08:57:33;;;;;;;2.33;0.93;;;;;;;10.23;70.70;98306.72;5129189;27;20047;-58
2022/04/07 09:00:01;;;;;;;3.40;0.80;;;;;;;10.23;70.19;98307.53;5123983;28;20059;-59
2022/04/07 09:02:29;;;;;;;2.95;0.90;;;;;;;10.24;70.42;98319.06;5120280;28;20079;-58
2022/04/07 09:04:58;;;;;;;1.60;0.68;;;;;;;10.25;70.62;98301.88;5122835;28;20072;-59
2022/04/07 09:07:33;;;;;;;1.80;0.93;;;;;;;10.25;70.62;98296.50;5108790;28;20125;-59
2022/04/07 09:10:02;;;;;;;3.13;0.93;;;;;;;10.27;70.73;98297.03;5119049;28;20077;-60
2022/04/07 09:12:29;;;;;;;1.92;1.05;;;;;;;10.28;71.16;98294.06;5123446;28;20051;-58
2022/04/07 09:14:58;;;;;;;3.05;0.85;;;;;;;10.29;70.39;98289.50;5110972;28;20472;-60
2022/04/07 09:17:26;;;;;;;31.90;1.90;;;;;;;10.31;70.67;98287.31;5114636;28;20055;-60
2022/04/07 09:19:54;;;;;;;2.63;0.90;;;;;;;10.31;71.34;98287.31;5103797;28;20078;-61
2022/04/07 09:22:29;;;;;;;4.18;1.02;;;;;;;10.33;71.04;98295.91;5118039;28;20063;-60
2022/04/07 09:24:59;;;;;;;2.28;1.25;;;;;;;10.36;71.22;98298.81;5122486;28;20093;-59
2022/04/07 09:27:28;;;;;;;4.10;1.30;;;;;;;10.37;71.12;98294.25;5123139;28;20086;-60
2022/04/07 09:29:56;;;;;;;3.58;1.23;;;;;;;10.37;71.72;98287.00;5120491;28;20097;-60
2022/04/07 09:32:24;;;;;;;2.40;1.50;;;;;;;10.38;71.45;98293.97;5123187;28;20100;-60
2022/04/07 09:34:53;;;;;;;2.05;1.05;;;;;;;10.38;72.02;98288.59;5123619;28;20078;-60
2022/04/07 09:37:22;;;;;;;4.03;1.35;;;;;;;10.39;71.73;98290.19;5119302;28;20079;-59
2022/04/07 09:39:50;;;;;;;1.60;1.10;;;;;;;10.42;71.79;98300.34;5124383;28;20051;-59
2022/04/07 09:42:23;;;;;;;3.10;1.48;;;;;;;10.45;71.98;98293.59;5122711;28;20054;-58
2022/04/07 09:44:53;;;;;;;7.35;1.75;;;;;;;10.49;72.35;98305.38;5113244;28;20044;-59
2022/04/07 09:47:21;;;;;;;4.88;1.70;;;;;;;10.50;72.33;98314.25;5121288;28;20079;-58
2022/04/07 09:49:49;;;;;;;3.58;1.77;;;;;;;10.50;72.39;98316.91;5103367;28;20045;-59
2022/04/07 09:52:21;;;;;;;2.67;1.40;;;;;;;10.50;71.72;98301.63;5109403;28;20362;-59
2022/04/07 09:54:52;;;;;;;2.70;1.50;;;;;;;10.53;71.58;98302.94;5123113;28;20129;-59
2022/04/07 09:57:26;;;;;;;4.80;2.75;;;;;;;10.55;71.72;98306.13;5112155;28;20069;-59
2022/04/07 09:59:55;;;;;;;2.67;1.50;;;;;;;10.57;71.16;98303.97;5123196;28;20083;-59
2022/04/07 10:02:24;;;;;;;3.80;1.60;;;;;;;10.58;71.28;98287.56;5125272;28;20052;-59
2022/04/07 10:04:53;;;;;;;4.63;2.65;;;;;;;10.63;70.80;98300.16;5126501;28;20086;-59
2022/04/07 10:07:21;;;;;;;3.85;1.95;;;;;;;10.64;69.78;98307.91;5124351;28;20051;-60
2022/04/07 10:09:50;;;;;;;2.55;1.42;;;;;;;10.64;67.09;98294.50;5105785;28;20072;-60
2022/04/07 10:12:19;;;;;;;3.53;1.50;;;;;;;10.65;67.54;98306.84;5105686;28;20083;-59
2022/04/07 10:14:49;;;;;;;4.43;1.80;;;;;;;10.56;67.55;98294.31;5112812;28;20062;-60
2022/04/07 10:17:17;;;;;;;5.05;1.80;;;;;;;10.69;66.96;98307.88;5123294;28;20048;-60
2022/04/07 10:19:49;;;;;;;6.25;2.75;;;;;;;10.72;66.13;98328.78;5131633;27;20047;-59
2022/04/07 10:22:33;;;;;;;4.00;1.50;;;;;;;10.73;64.73;98318.84;5105660;28;20048;-60
2022/04/07 10:25:03;;;;;;;2.42;1.10;;;;;;;10.75;64.31;98309.41;5115407;28;20055;-59
2022/04/07 10:27:39;;;;;;;5.05;1.63;;;;;;;10.79;64.35;98333.03;5125859;28;20048;-60
2022/04/07 10:30:11;;;;;;;3.47;1.75;;;;;;;10.83;65.04;98328.69;5124281;28;20051;-59
2022/04/07 10:32:41;;;;;;;3.83;1.30;;;;;;;10.85;64.28;98329.19;5126249;28;20055;-59
2022/04/07 10:35:10;;;;;;;4.07;1.10;;;;;;;10.86;62.88;98344.22;5113216;28;20052;-60
2022/04/07 10:37:45;;;;;;;6.82;1.13;;;;;;;10.87;62.72;98322.44;5125412;28;20126;-59
2022/04/07 10:40:35;;;;;;;5.35;1.20;;;;;;;10.89;61.90;98333.72;5117909;28;20068;-59
2022/04/07 10:43:10;;;;;;;3.13;1.08;;;;;;;10.92;61.56;98329.66;5110242;28;20071;-59
2022/04/07 10:45:41;;;;;;;5.30;1.33;;;;;;;10.86;61.46;98323.53;5124373;28;20131;-60
2022/04/07 10:48:20;;;;;;;7.97;1.95;;;;;;;10.93;61.31;98332.06;5126047;28;20496;-59
2022/04/07 10:50:50;;;;;;;4.40;1.45;;;;;;;10.94;61.08;98343.59;5116880;28;20048;-58
2022/04/07 10:53:20;;;;;;;5.95;1.73;;;;;;;10.96;60.46;98352.19;5120786;28;20108;-59
2022/04/07 10:55:55;;;;;;;3.47;1.15;;;;;;;10.96;59.66;98342.25;5125997;28;20079;-59
2022/04/07 10:58:40;;;;;;;6.88;1.55;;;;;;;10.98;59.25;98341.94;5112688;28;20075;-59
2022/04/07 11:01:14;;;;;;;5.13;1.30;;;;;;;11.00;59.06;98354.03;5124970;28;20158;-59
2022/04/07 11:03:42;;;;;;;5.75;1.30;;;;;;;11.00;58.41;98370.16;5132686;27;20048;-59
2022/04/07 11:06:11;;;;;;;6.43;1.42;;;;;;;11.02;58.48;98364.47;5105116;28;20040;-59
2022/04/07 11:08:39;;;;;;;8.93;1.50;;;;;;;11.03;59.25;98374.94;5111782;28;20098;-59
2022/04/07 11:11:07;;;;;;;7.85;2.03;;;;;;;11.04;59.01;98378.44;5104697;28;20059;-57
2022/04/07 11:13:45;;;;;;;6.43;1.48;;;;;;;11.04;58.86;98398.06;5126777;27;20059;-59
2022/04/07 11:16:29;;;;;;;6.20;1.48;;;;;;;11.02;59.27;98404.81;5118953;28;20051;-59
2022/04/07 11:19:13;;;;;;;6.93;1.63;;;;;;;10.99;59.35;98424.19;5125503;28;20480;-59
2022/04/07 11:21:45;;;;;;;6.22;1.73;;;;;;;10.95;59.87;98421.25;5122841;28;20051;-57
2022/04/07 11:24:23;;;;;;;6.05;1.98;;;;;;;10.96;60.68;98433.59;5127143;27;20047;-59
2022/04/07 11:26:53;;;;;;;12.25;2.53;;;;;;;10.89;59.90;98427.75;5115549;28;20060;-59
2022/04/07 11:29:32;;;;;;;9.00;2.10;;;;;;;10.91;59.19;98454.34;5120046;28;20044;-59
2022/04/07 11:32:09;;;;;;;12.65;2.10;;;;;;;10.90;58.86;98453.56;5117935;28;20059;-58
2022/04/07 11:34:50;;;;;;;10.55;1.85;;;;;;;10.88;58.76;98455.72;5117577;28;20047;-58
2022/04/07 11:37:19;;;;;;;9.48;2.10;;;;;;;10.87;57.24;98480.19;5124753;28;20055;-58
2022/04/07 11:39:49;;;;;;;8.55;2.00;;;;;;;10.85;57.44;98455.47;5113493;28;20070;-58
2022/04/07 11:42:18;;;;;;;9.18;1.85;;;;;;;10.89;57.02;98488.75;5104001;28;20078;-58
2022/04/07 11:44:47;;;;;;;12.02;3.08;;;;;;;10.90;56.26;98455.44;5115156;28;20105;-58